Time;durP1;ratioP1;P1;durP2;ratioP2;P2;SDS_P1;SDS_P2;PMS_P1;PMS_P2;Temp;Humidity;BMP_temperature;BMP_pressure;BME280_temperature;BME280_humidity;BME280_pressure;Samples;Min_cycle;Max_cycle;Signal;HPM_P1;HPM_P2
2022/04/02 00:01:52;;;;;;;7.17;2.43;;;2.40;99.90;;;;;;5174904;27;20049;-72
2022/04/02 00:04:17;;;;;;;7.00;2.67;;;2.40;99.90;;;;;;5156649;27;20397;-72
2022/04/02 00:06:43;;;;;;;6.67;2.90;;;2.40;99.90;;;;;;5156353;27;20049;-72
2022/04/02 00:09:09;;;;;;;9.43;3.43;;;2.40;99.90;;;;;;5175258;27;20130;-72
2022/04/02 00:11:35;;;;;;;6.40;3.50;;;2.40;99.90;;;;;;5175071;27;20046;-80
2022/04/02 00:14:00;;;;;;;7.37;3.50;;;2.40;99.90;;;;;;5175160;27;20099;-72
2022/04/02 00:16:26;;;;;;;7.53;3.00;;;2.30;99.90;;;;;;5159685;27;20441;-72
2022/04/02 00:18:52;;;;;;;11.17;3.50;;;2.30;99.90;;;;;;5178679;27;20481;-72
2022/04/02 00:21:19;;;;;;;6.60;3.22;;;2.30;99.90;;;;;;5160450;27;20133;-72
2022/04/02 00:23:46;;;;;;;6.97;2.78;;;2.30;99.90;;;;;;5178591;27;20089;-72
2022/04/02 00:26:19;;;;;;;8.20;2.97;;;2.30;99.90;;;;;;5160298;27;20061;-72
2022/04/02 00:28:45;;;;;;;5.40;2.58;;;2.30;99.90;;;;;;5160307;27;20050;-72
2022/04/02 00:31:13;;;;;;;7.50;3.10;;;2.30;99.90;;;;;;5160748;27;20054;-72
2022/04/02 00:33:40;;;;;;;7.28;2.80;;;2.30;99.90;;;;;;5178617;27;20121;-73
2022/04/02 00:36:07;;;;;;;7.28;3.20;;;2.30;99.90;;;;;;5143323;27;20050;-72
2022/04/02 00:38:32;;;;;;;5.43;2.67;;;2.20;99.90;;;;;;5178629;27;20377;-72
2022/04/02 00:40:58;;;;;;;8.60;2.93;;;2.20;99.90;;;;;;5178209;27;20042;-72
2022/04/02 00:43:26;;;;;;;7.13;2.63;;;2.20;99.90;;;;;;5178272;27;20385;-72
2022/04/02 00:45:56;;;;;;;6.97;2.83;;;2.10;99.90;;;;;;5178211;27;20110;-72
2022/04/02 00:48:23;;;;;;;7.80;3.00;;;2.10;99.90;;;;;;5178503;27;20074;-72
2022/04/02 00:50:55;;;;;;;7.43;3.08;;;2.00;99.90;;;;;;5178048;27;20042;-72
2022/04/02 00:53:28;;;;;;;7.68;3.03;;;2.00;99.90;;;;;;5159751;27;20393;-72
2022/04/02 00:55:54;;;;;;;6.63;2.97;;;2.00;99.90;;;;;;5160551;27;20042;-72
2022/04/02 00:58:20;;;;;;;7.90;2.80;;;2.00;99.90;;;;;;5178136;27;20113;-72
2022/04/02 01:00:46;;;;;;;6.37;3.20;;;2.00;99.90;;;;;;5159470;27;20046;-72
2022/04/02 01:03:13;;;;;;;6.35;3.00;;;2.00;99.90;;;;;;5178193;27;20045;-73
2022/04/02 01:05:39;;;;;;;6.40;3.10;;;2.00;99.90;;;;;;5177879;27;20042;-73
2022/04/02 01:08:05;;;;;;;5.88;2.95;;;2.00;99.90;;;;;;5177732;27;20041;-73
2022/04/02 01:10:42;;;;;;;9.35;3.17;;;2.00;99.90;;;;;;5178117;27;20044;-72
2022/04/02 01:13:09;;;;;;;5.45;2.95;;;1.90;99.90;;;;;;5159985;27;20042;-72
2022/04/02 01:15:35;;;;;;;7.07;3.03;;;1.90;99.90;;;;;;5142197;27;20534;-72
2022/04/02 01:18:01;;;;;;;8.18;3.75;;;1.90;99.90;;;;;;5158770;27;20436;-73
2022/04/02 01:20:32;;;;;;;7.53;3.20;;;1.90;99.90;;;;;;5159414;27;20042;-72
2022/04/02 01:22:59;;;;;;;6.57;3.40;;;1.80;99.90;;;;;;5177571;27;20042;-73
2022/04/02 01:25:25;;;;;;;7.25;2.80;;;1.80;99.90;;;;;;5158581;27;20046;-72
2022/04/02 01:27:53;;;;;;;5.75;3.10;;;1.80;99.90;;;;;;5159040;27;20084;-72
2022/04/02 01:30:18;;;;;;;7.72;3.13;;;1.80;99.90;;;;;;5177619;27;20572;-72
2022/04/02 01:32:44;;;;;;;7.50;3.13;;;1.80;99.90;;;;;;5158612;27;20125;-72
2022/04/02 01:35:11;;;;;;;6.50;3.00;;;1.80;99.90;;;;;;5177607;27;20087;-72
2022/04/02 01:37:38;;;;;;;5.30;2.80;;;1.70;99.90;;;;;;5177388;27;20044;-72
2022/04/02 01:40:05;;;;;;;8.05;2.95;;;1.70;99.90;;;;;;5177078;27;20082;-72
2022/04/02 01:42:31;;;;;;;6.07;2.90;;;1.80;99.90;;;;;;5177394;27;20450;-72
2022/04/02 01:44:57;;;;;;;8.00;2.88;;;1.80;99.90;;;;;;5158456;27;20046;-72
2022/04/02 01:47:23;;;;;;;9.37;3.40;;;1.70;99.90;;;;;;5177241;27;20034;-72
2022/04/02 01:49:49;;;;;;;6.07;3.37;;;1.60;99.90;;;;;;5176890;27;20085;-72
2022/04/02 01:52:16;;;;;;;11.45;3.13;;;1.60;99.90;;;;;;5177424;27;20094;-72
2022/04/02 01:54:43;;;;;;;8.25;3.58;;;1.60;99.90;;;;;;5157352;27;20047;-71
2022/04/02 01:57:09;;;;;;;7.68;3.20;;;1.60;99.90;;;;;;5176552;27;20042;-72
2022/04/02 01:59:35;;;;;;;7.50;2.95;;;1.60;99.90;;;;;;5177037;27;20501;-72
2022/04/02 02:02:01;;;;;;;11.10;3.17;;;;;;;;;;5141058;27;20054;-72
2022/04/02 02:04:28;;;;;;;9.65;3.53;;;1.60;99.90;;;;;;5177162;27;20499;-72
2022/04/02 02:06:53;;;;;;;6.53;2.97;;;1.50;99.90;;;;;;5176600;27;20125;-72
2022/04/02 02:09:19;;;;;;;5.13;2.40;;;1.50;99.90;;;;;;5176681;27;20097;-72
2022/04/02 02:11:45;;;;;;;4.95;2.42;;;1.40;99.90;;;;;;5140721;27;20046;-72
2022/04/02 02:14:11;;;;;;;7.57;2.67;;;1.50;99.90;;;;;;5140808;27;20056;-72
2022/04/02 02:16:37;;;;;;;8.13;2.67;;;1.50;99.90;;;;;;5176570;27;20390;-72
2022/04/02 02:19:03;;;;;;;5.93;2.50;;;1.50;99.90;;;;;;5176171;27;20126;-72
2022/04/02 02:21:29;;;;;;;7.23;3.40;;;1.50;99.90;;;;;;5176669;27;20057;-72
2022/04/02 02:23:56;;;;;;;9.57;3.20;;;1.60;99.90;;;;;;5176195;27;20751;-72
2022/04/02 02:26:22;;;;;;;5.55;2.78;;;1.50;99.90;;;;;;5158314;27;20042;-72
2022/04/02 02:28:48;;;;;;;8.65;2.88;;;1.50;99.90;;;;;;5176319;27;20050;-79
2022/04/02 02:31:14;;;;;;;7.93;2.60;;;1.60;99.90;;;;;;5176819;27;20427;-72
2022/04/02 02:36:25;;;;;;;7.32;3.20;;;1.50;99.90;;;;;;5176210;27;20770;-73
2022/04/02 02:38:51;;;;;;;9.18;3.03;;;1.50;99.90;;;;;;5175240;27;20046;-73
2022/04/02 02:41:17;;;;;;;7.47;2.67;;;1.50;99.90;;;;;;5176238;27;20090;-73
2022/04/02 02:43:43;;;;;;;6.47;2.87;;;1.40;99.90;;;;;;5176124;27;20045;-73
2022/04/02 02:46:10;;;;;;;6.60;2.80;;;1.40;99.90;;;;;;5175748;27;20157;-72
2022/04/02 02:48:35;;;;;;;5.10;2.58;;;1.40;99.90;;;;;;5176028;27;20053;-73
2022/04/02 02:51:01;;;;;;;7.20;2.70;;;1.40;99.90;;;;;;5175407;27;20050;-72
2022/04/02 02:53:27;;;;;;;10.67;2.97;;;1.40;99.90;;;;;;5175959;27;20282;-72
2022/04/02 02:55:53;;;;;;;6.53;2.63;;;1.40;99.90;;;;;;5157122;27;20158;-73
2022/04/02 02:58:18;;;;;;;5.90;3.00;;;1.30;99.90;;;;;;5175771;27;20041;-72
2022/04/02 03:00:46;;;;;;;8.10;2.70;;;1.30;99.90;;;;;;5157474;27;20094;-72
2022/04/02 03:03:12;;;;;;;8.02;2.80;;;1.30;99.90;;;;;;5175484;27;20139;-73
2022/04/02 03:05:37;;;;;;;5.40;2.50;;;1.30;99.90;;;;;;5139876;27;20050;-73
2022/04/02 03:08:04;;;;;;;8.30;2.67;;;1.30;99.90;;;;;;5139595;27;20129;-73
2022/04/02 03:10:30;;;;;;;7.63;2.75;;;1.30;99.90;;;;;;5175740;27;20053;-73
2022/04/02 03:12:57;;;;;;;10.70;3.67;;;1.20;99.90;;;;;;5139466;27;20046;-73
2022/04/02 03:15:24;;;;;;;9.00;3.17;;;1.20;99.90;;;;;;5175747;27;20081;-73
2022/04/02 03:17:51;;;;;;;6.38;2.30;;;1.20;99.90;;;;;;5175599;27;20045;-72
2022/04/02 03:20:19;;;;;;;6.32;2.90;;;1.20;99.90;;;;;;5175395;27;20089;-73
2022/04/02 03:22:47;;;;;;;6.75;2.88;;;1.20;99.90;;;;;;5175710;27;20046;-73
2022/04/02 03:25:15;;;;;;;7.53;2.25;;;1.10;99.90;;;;;;5175211;27;20085;-72
2022/04/02 03:27:46;;;;;;;8.02;2.17;;;1.10;99.90;;;;;;5157154;27;20046;-73
2022/04/02 03:30:14;;;;;;;4.68;2.15;;;1.10;99.90;;;;;;5175299;27;20057;-73
2022/04/02 03:32:41;;;;;;;9.95;2.20;;;1.10;99.90;;;;;;5157228;27;20098;-73
2022/04/02 03:35:08;;;;;;;7.93;2.30;;;1.00;99.90;;;;;;5156782;27;20426;-73
2022/04/02 03:37:37;;;;;;;6.50;2.95;;;1.00;99.90;;;;;;5139569;27;20046;-73
2022/04/02 03:40:05;;;;;;;9.32;2.30;;;;;;;;;;5175167;27;20049;-74
2022/04/02 03:42:32;;;;;;;8.80;2.05;;;1.00;99.90;;;;;;5175412;27;20042;-73
2022/04/02 03:44:57;;;;;;;9.27;2.33;;;1.00;99.90;;;;;;5175139;27;20085;-74
2022/04/02 03:47:23;;;;;;;6.33;2.20;;;1.00;99.90;;;;;;5175331;27;20074;-74
2022/04/02 03:49:50;;;;;;;6.43;2.00;;;1.00;99.90;;;;;;5177773;27;20190;-73
2022/04/02 03:52:17;;;;;;;9.38;3.45;;;0.90;99.90;;;;;;5179216;27;20061;-74
2022/04/02 03:54:42;;;;;;;5.20;1.80;;;1.00;99.90;;;;;;5179514;27;20042;-74
2022/04/02 03:57:10;;;;;;;5.30;1.93;;;1.40;99.90;;;;;;5179098;27;20045;-74
2022/04/02 03:59:36;;;;;;;5.28;1.63;;;0.90;99.90;;;;;;5160855;27;20050;-74
2022/04/02 04:02:04;;;;;;;5.63;1.77;;;0.90;99.90;;;;;;5179079;27;20042;-74
2022/04/02 04:04:31;;;;;;;6.40;1.73;;;0.90;99.90;;;;;;5161034;27;20593;-74
2022/04/02 04:06:57;;;;;;;6.80;1.88;;;0.90;99.90;;;;;;5179285;27;20111;-74
2022/04/02 04:09:23;;;;;;;5.90;1.90;;;0.90;99.90;;;;;;5178851;27;20501;-74
2022/04/02 04:11:49;;;;;;;7.45;3.28;;;1.00;99.90;;;;;;5179209;27;20042;-74
2022/04/02 04:14:15;;;;;;;6.88;2.15;;;1.00;99.90;;;;;;5178861;27;20134;-74
2022/04/02 04:16:42;;;;;;;5.37;1.77;;;0.90;99.90;;;;;;5160450;27;20129;-74
2022/04/02 04:19:08;;;;;;;5.63;2.03;;;0.90;99.90;;;;;;5177990;27;20378;-75
2022/04/02 04:21:34;;;;;;;5.78;1.70;;;0.90;99.90;;;;;;5143739;27;20039;-74
2022/04/02 04:24:01;;;;;;;5.60;1.63;;;0.80;99.90;;;;;;5143066;27;20053;-79
2022/04/02 04:26:26;;;;;;;4.93;1.50;;;0.90;99.90;;;;;;5178920;27;20293;-74
2022/04/02 04:28:52;;;;;;;5.37;1.60;;;0.90;99.90;;;;;;5160617;27;20136;-74
2022/04/02 04:31:18;;;;;;;6.37;2.57;;;0.90;99.90;;;;;;5160064;27;20045;-74
2022/04/02 04:33:46;;;;;;;5.47;1.60;;;0.80;99.90;;;;;;5178727;27;20113;-74
2022/04/02 04:36:12;;;;;;;7.50;1.30;;;0.80;99.90;;;;;;5178401;27;20401;-74
2022/04/02 04:38:37;;;;;;;8.43;1.90;;;1.10;99.90;;;;;;5160232;27;20389;-74
2022/04/02 04:41:03;;;;;;;6.40;1.93;;;0.90;99.90;;;;;;5177867;27;20056;-75
2022/04/02 04:43:30;;;;;;;4.23;1.70;;;1.00;99.90;;;;;;5178560;27;20042;-74
2022/04/02 04:45:56;;;;;;;6.35;1.88;;;0.80;99.90;;;;;;5159943;27;20335;-74
2022/04/02 04:48:23;;;;;;;4.72;2.00;;;0.90;99.90;;;;;;5177833;27;20049;-74
2022/04/02 04:50:49;;;;;;;7.70;2.53;;;0.80;99.90;;;;;;5159914;27;20121;-74
2022/04/02 04:53:15;;;;;;;8.77;1.80;;;1.20;99.90;;;;;;5178079;27;20083;-74
2022/04/02 04:55:40;;;;;;;5.57;1.70;;;1.00;99.90;;;;;;5178351;27;20078;-74
2022/04/02 04:58:07;;;;;;;5.23;1.77;;;0.90;99.90;;;;;;5177905;27;20038;-74
2022/04/02 05:00:33;;;;;;;6.93;1.88;;;1.30;99.90;;;;;;5177391;27;20053;-74
2022/04/02 05:02:59;;;;;;;5.78;1.75;;;1.30;99.90;;;;;;5159922;27;20071;-74
2022/04/02 05:05:27;;;;;;;7.00;1.43;;;0.80;99.90;;;;;;5177957;27;20050;-74
2022/04/02 05:07:53;;;;;;;6.15;1.50;;;0.80;99.90;;;;;;5178089;27;20079;-73
2022/04/02 05:10:19;;;;;;;5.32;1.48;;;0.90;99.90;;;;;;5159384;27;20053;-74
2022/04/02 05:12:45;;;;;;;6.00;1.80;;;0.90;99.90;;;;;;5178044;27;20047;-74
2022/04/02 05:15:12;;;;;;;9.30;2.17;;;0.90;99.90;;;;;;5177638;27;20046;-75
2022/04/02 05:17:38;;;;;;;6.57;1.65;;;0.80;99.90;;;;;;5177840;27;20579;-75
2022/04/02 05:20:11;;;;;;;4.90;1.70;;;0.80;99.90;;;;;;5177520;27;20082;-78
2022/04/02 05:22:37;;;;;;;8.73;1.52;;;0.80;99.90;;;;;;5178183;27;20050;-74
2022/04/02 05:25:04;;;;;;;4.57;1.52;;;0.90;99.90;;;;;;5142264;27;20053;-74
2022/04/02 05:27:30;;;;;;;3.95;1.48;;;0.90;99.90;;;;;;5159265;27;20046;-74
2022/04/02 05:29:56;;;;;;;5.97;1.57;;;0.90;99.90;;;;;;5159243;27;20043;-74
2022/04/02 05:32:22;;;;;;;6.45;1.90;;;1.10;99.90;;;;;;5177705;27;20050;-74
2022/04/02 05:34:47;;;;;;;6.17;1.83;;;1.00;99.90;;;;;;5178491;27;20045;-74
2022/04/02 05:37:14;;;;;;;6.57;2.00;;;1.00;99.90;;;;;;5177678;27;20038;-75
2022/04/02 05:39:41;;;;;;;6.40;1.73;;;1.10;99.90;;;;;;5177613;27;20079;-74
2022/04/02 05:42:07;;;;;;;8.73;1.70;;;1.10;99.90;;;;;;5159085;27;20106;-76
2022/04/02 05:44:33;;;;;;;6.22;1.63;;;1.10;99.90;;;;;;5177623;27;20060;-74
2022/04/02 05:46:59;;;;;;;5.47;1.50;;;1.20;99.90;;;;;;5158932;27;20517;-74
2022/04/02 05:49:25;;;;;;;8.18;1.52;;;1.20;99.90;;;;;;5158783;27;20046;-74
2022/04/02 05:51:51;;;;;;;5.63;1.60;;;1.30;99.90;;;;;;5177240;27;20129;-74
2022/04/02 05:54:17;;;;;;;8.23;2.17;;;;;;;;;;5141295;27;20046;-74
2022/04/02 05:56:43;;;;;;;6.13;1.70;;;1.50;99.90;;;;;;5177152;27;20121;-74
2022/04/02 05:59:09;;;;;;;5.07;1.67;;;1.60;99.90;;;;;;5176524;27;20130;-76
2022/04/02 06:01:35;;;;;;;4.13;1.40;;;1.60;99.90;;;;;;5176936;27;20080;-74
2022/04/02 06:04:03;;;;;;;5.13;1.77;;;;;;;;;;5158431;27;20042;-74
2022/04/02 06:06:30;;;;;;;5.75;1.73;;;1.80;99.90;;;;;;5158387;27;20110;-74
2022/04/02 06:08:57;;;;;;;5.50;1.50;;;1.80;99.90;;;;;;5158754;27;20048;-74
2022/04/02 06:11:22;;;;;;;6.05;2.00;;;1.90;99.90;;;;;;5158210;27;20550;-74
2022/04/02 06:13:48;;;;;;;6.40;2.03;;;2.00;99.90;;;;;;5176885;27;20046;-74
2022/04/02 06:16:14;;;;;;;9.27;1.90;;;;;;;;;;5157965;27;20124;-74
2022/04/02 06:18:40;;;;;;;5.32;1.85;;;;;;;;;;5157677;27;20516;-74
2022/04/02 06:21:06;;;;;;;7.30;1.42;;;2.80;99.90;;;;;;5176624;27;20106;-74
2022/04/02 06:23:33;;;;;;;5.13;1.60;;;2.40;99.90;;;;;;5157901;27;20521;-74
2022/04/02 06:25:58;;;;;;;6.18;1.73;;;2.40;99.90;;;;;;5157879;27;20405;-73
2022/04/02 06:28:24;;;;;;;7.07;1.70;;;2.40;99.90;;;;;;5176169;27;20046;-74
2022/04/02 06:30:50;;;;;;;4.37;1.93;;;2.40;99.90;;;;;;5176589;27;20276;-74
2022/04/02 06:33:16;;;;;;;5.57;1.70;;;2.40;99.90;;;;;;5175908;27;20042;-74
2022/04/02 06:35:42;;;;;;;5.70;1.50;;;2.50;99.90;;;;;;5176433;27;20081;-74
2022/04/02 06:38:07;;;;;;;4.70;1.97;;;2.50;99.90;;;;;;5176189;27;20155;-74
2022/04/02 06:40:33;;;;;;;5.93;1.80;;;2.60;99.90;;;;;;5175920;27;20184;-73
2022/04/02 06:43:00;;;;;;;6.10;1.75;;;2.80;99.90;;;;;;5176110;27;20132;-73
2022/04/02 06:45:26;;;;;;;7.65;1.73;;;2.90;99.90;;;;;;5175596;27;20067;-73
2022/04/02 06:47:52;;;;;;;8.45;2.42;;;3.00;99.90;;;;;;5176128;27;20080;-73
2022/04/02 06:50:18;;;;;;;7.97;2.00;;;3.20;99.90;;;;;;5157513;27;20478;-73
2022/04/02 06:52:45;;;;;;;7.53;2.05;;;3.30;99.90;;;;;;5176127;27;20089;-73
2022/04/02 06:55:12;;;;;;;4.60;1.80;;;3.50;99.90;;;;;;5175948;27;20042;-72
2022/04/02 06:57:49;;;;;;;4.68;1.50;;;3.70;99.40;;;;;;5156965;27;20122;-72
2022/04/02 07:00:16;;;;;;;6.30;1.98;;;3.80;99.90;;;;;;5140109;27;20054;-73
2022/04/02 07:02:41;;;;;;;6.13;1.80;;;4.10;99.90;;;;;;5157237;27;20392;-72
2022/04/02 07:05:08;;;;;;;5.10;1.97;;;;;;;;;;5175822;27;20050;-72
2022/04/02 07:07:34;;;;;;;7.50;2.00;;;4.60;98.70;;;;;;5175538;27;20878;-72
2022/04/02 07:09:59;;;;;;;6.50;2.07;;;4.90;96.60;;;;;;5157214;27;20054;-72
2022/04/02 07:12:25;;;;;;;7.17;1.80;;;5.30;97.50;;;;;;5156842;27;20541;-72
2022/04/02 07:14:52;;;;;;;6.57;1.70;;;;;;;;;;5157385;27;20046;-72
2022/04/02 07:17:18;;;;;;;4.15;1.65;;;5.50;91.30;;;;;;5175266;27;20474;-72
2022/04/02 07:19:46;;;;;;;4.70;1.70;;;5.80;94.10;;;;;;5175166;27;20050;-72
2022/04/02 07:22:14;;;;;;;4.88;1.98;;;;;;;;;;5156764;27;20202;-71
2022/04/02 07:24:41;;;;;;;5.05;1.85;;;6.50;82.50;;;;;;5175135;27;20042;-72
2022/04/02 07:27:07;;;;;;;5.18;1.52;;;6.80;91.00;;;;;;5175528;27;20091;-72
2022/04/02 07:29:34;;;;;;;5.03;1.70;;;6.70;89.00;;;;;;5175187;27;20052;-72
2022/04/02 07:32:00;;;;;;;8.45;2.42;;;6.60;92.90;;;;;;5156637;27;20507;-71
2022/04/02 07:34:26;;;;;;;8.20;2.03;;;6.30;87.30;;;;;;5175168;27;20516;-72
2022/04/02 07:37:29;;;;;;;5.57;1.63;;;6.40;88.10;;;;;;5156801;27;20042;-72
2022/04/02 07:40:06;;;;;;;4.75;1.80;;;;;;;;;;5158373;27;20047;-71
2022/04/02 07:42:34;;;;;;;5.85;2.20;;;;;;;;;;5174753;27;20050;-70
2022/04/02 07:45:14;;;;;;;6.10;1.95;;;;;;;;;;5175312;27;20520;-70
2022/04/02 07:47:47;;;;;;;5.00;1.80;;;7.90;68.30;;;;;;5156755;27;20490;-70
2022/04/02 07:50:14;;;;;;;6.72;1.92;;;8.10;77.20;;;;;;5175627;27;20054;-71
2022/04/02 07:52:44;;;;;;;4.22;1.70;;;;;;;;;;5175139;27;20070;-71
2022/04/02 07:55:12;;;;;;;5.97;1.73;;;8.10;76.00;;;;;;5175262;27;20047;-71
2022/04/02 07:57:40;;;;;;;6.53;1.80;;;7.60;74.50;;;;;;5155535;27;20041;-72
2022/04/02 08:00:10;;;;;;;5.03;1.90;;;7.20;74.40;;;;;;5175264;27;20081;-72
2022/04/02 08:02:38;;;;;;;7.22;2.33;;;6.60;73.30;;;;;;5174877;27;20042;-72
2022/04/02 08:05:10;;;;;;;10.00;2.10;;;6.20;74.00;;;;;;5175163;27;20469;-71
2022/04/02 08:07:37;;;;;;;6.90;1.80;;;;;;;;;;5174910;27;20042;-71
2022/04/02 08:10:08;;;;;;;4.82;1.80;;;;;;;;;;5175151;27;20106;-71
2022/04/02 08:12:38;;;;;;;6.20;2.75;;;;;;;;;;5155992;27;20042;-71
2022/04/02 08:15:05;;;;;;;8.27;2.75;;;;;;;;;;5175322;27;20099;-70
2022/04/02 08:17:32;;;;;;;8.32;2.33;;;;;;;;;;5174695;27;20053;-71
2022/04/02 08:19:59;;;;;;;5.75;2.35;;;;;;;;;;5174648;27;20050;-71
2022/04/02 08:22:25;;;;;;;7.57;2.67;;;;;;;;;;5156253;27;20125;-72
2022/04/02 08:24:51;;;;;;;6.20;1.98;;;;;;;;;;5174988;27;20409;-71
2022/04/02 08:27:39;;;;;;;6.32;2.30;;;;;;;;;;5173838;27;20046;-72
2022/04/02 08:30:06;;;;;;;6.03;2.55;;;;;;;;;;5174931;27;20065;-72
2022/04/02 08:32:39;;;;;;;6.95;2.03;;;;;;;;;;5174694;27;20186;-72
2022/04/02 08:35:09;;;;;;;6.60;2.28;;;;;;;;;;5156387;27;20042;-71
2022/04/02 08:37:38;;;;;;;5.57;1.95;;;;;;;;;;5159033;27;20308;-72
2022/04/02 08:40:23;;;;;;;7.60;2.13;;;;;;;;;;5160319;27;20054;-71
2022/04/02 08:42:58;;;;;;;5.93;1.77;;;;;;;;;;5178368;27;20098;-71
2022/04/02 08:45:27;;;;;;;4.25;1.75;;;;;;;;;;5178372;27;20499;-74
2022/04/02 08:48:12;;;;;;;9.05;2.63;;;;;;;;;;5160237;27;20194;-71
2022/04/02 08:50:42;;;;;;;5.95;1.63;;;;;;;;;;5178360;27;20054;-71
2022/04/02 08:53:23;;;;;;;6.40;1.55;;;;;;;;;;5178723;27;20088;-72
2022/04/02 08:55:50;;;;;;;5.38;2.13;;;;;;;;;;5178172;27;20049;-72
2022/04/02 08:58:22;;;;;;;6.35;2.47;;;;;;;;;;5178394;27;20042;-71
2022/04/02 09:01:08;;;;;;;5.32;1.63;;;;;;;;;;5141947;27;20050;-72
2022/04/02 09:03:37;;;;;;;6.40;2.00;;;;;;;;;;5177241;27;20094;-73
2022/04/02 09:06:40;;;;;;;4.20;1.55;;;6.10;99.90;;;;;;5159578;27;20046;-76
2022/04/02 09:09:07;;;;;;;5.78;1.58;;;;;;;;;;5178085;27;20090;-75
2022/04/02 09:11:36;;;;;;;6.28;3.08;;;;;;;;;;5177763;27;20114;-76
2022/04/02 09:14:21;;;;;;;3.13;1.25;;;;;;;;;;5177986;27;20052;-74
2022/04/02 09:16:47;;;;;;;5.65;2.03;;;;;;;;;;5141993;27;20066;-75
2022/04/02 09:19:14;;;;;;;5.63;1.67;;;;;;;;;;5177042;27;20054;-75
2022/04/02 09:22:32;;;;;;;4.20;1.88;;;6.10;77.10;;;;;;5159251;27;20072;-76
2022/04/02 09:25:27;;;;;;;4.65;1.25;;;6.10;77.60;;;;;;5103046;27;20054;-79
2022/04/02 09:28:23;;;;;;;4.40;1.50;;;6.20;73.50;;;;;;5178366;27;20469;-76
2022/04/02 09:31:21;;;;;;;6.32;1.48;;;6.30;75.90;;;;;;5179509;27;20057;-79
2022/04/02 09:34:08;;;;;;;4.25;1.58;;;6.40;72.10;;;;;;5159261;27;20121;-80
2022/04/02 09:37:03;;;;;;;4.25;1.73;;;6.40;68.40;;;;;;5158742;27;20086;-76
2022/04/02 09:39:57;;;;;;;7.25;1.42;;;6.30;66.70;;;;;;5177607;27;20046;-76
2022/04/02 09:42:37;;;;;;;5.60;1.45;;;6.20;69.70;;;;;;5158095;27;20049;-77
2022/04/02 09:45:03;;;;;;;4.45;1.92;;;6.10;66.90;;;;;;5177673;27;20050;-71
2022/04/02 09:47:55;;;;;;;3.40;1.30;;;6.20;69.00;;;;;;5176922;27;20137;-74
2022/04/02 09:50:26;;;;;;;3.72;1.50;;;6.10;66.40;;;;;;5177452;27;20049;-73
2022/04/02 09:52:57;;;;;;;13.10;2.08;;;6.20;64.30;;;;;;5158102;27;20334;-77
2022/04/02 09:55:40;;;;;;;5.25;1.77;;;6.10;65.30;;;;;;5159658;27;20042;-77
2022/04/02 09:58:27;;;;;;;5.35;1.42;;;6.10;64.70;;;;;;5158891;27;20401;-74
2022/04/02 10:01:13;;;;;;;4.57;1.60;;;6.10;63.00;;;;;;5176881;27;20050;-77
2022/04/02 10:03:51;;;;;;;3.92;1.40;;;6.10;62.40;;;;;;5177095;27;20114;-75
2022/04/02 10:06:39;;;;;;;4.13;1.42;;;6.10;64.10;;;;;;5158386;27;20046;-76
2022/04/02 10:09:13;;;;;;;6.82;1.50;;;6.10;64.60;;;;;;5177061;27;20438;-74
2022/04/02 10:11:50;;;;;;;4.78;1.40;;;6.10;63.60;;;;;;5176585;27;20046;-74
2022/04/02 10:14:26;;;;;;;5.13;1.27;;;6.10;63.70;;;;;;5176994;27;20050;-72
2022/04/02 10:16:55;;;;;;;5.53;1.53;;;6.10;61.60;;;;;;5157674;27;20146;-70
2022/04/02 10:19:32;;;;;;;5.45;1.58;;;6.20;64.10;;;;;;5176570;27;20054;-69
2022/04/02 10:22:11;;;;;;;5.85;1.10;;;6.30;62.60;;;;;;5156399;27;20038;-72
2022/04/02 10:24:47;;;;;;;5.80;1.25;;;6.40;62.20;;;;;;5173688;27;20069;-86
2022/04/02 10:27:30;;;;;;;4.53;1.48;;;6.40;63.20;;;;;;5173774;27;20038;-82
2022/04/02 10:30:11;;;;;;;4.40;1.20;;;6.40;61.60;;;;;;5176270;27;20044;-82
2022/04/02 10:35:46;;;;;;;4.60;1.25;;;6.30;59.70;;;;;;5176170;27;20390;-86
2022/04/02 10:38:36;;;;;;;4.00;1.20;;;6.40;62.40;;;;;;5176568;27;20486;-72
2022/04/02 10:41:21;;;;;;;5.40;1.27;;;6.50;56.50;;;;;;5176614;27;20057;-74
2022/04/02 10:44:03;;;;;;;7.40;1.10;;;6.50;56.00;;;;;;5140231;27;20042;-74
2022/04/02 10:46:32;;;;;;;7.38;1.30;;;6.50;56.80;;;;;;5176587;27;20094;-73
2022/04/02 10:49:00;;;;;;;4.47;1.10;;;6.50;57.00;;;;;;5175866;27;20125;-74
2022/04/02 10:51:30;;;;;;;3.00;1.08;;;6.50;58.80;;;;;;5176067;27;20132;-73
2022/04/02 10:54:03;;;;;;;5.10;1.35;;;6.50;56.60;;;;;;5175632;27;20045;-73
2022/04/02 10:56:33;;;;;;;2.78;0.90;;;;;;;;;;5157005;27;20130;-73
2022/04/02 10:59:00;;;;;;;4.05;1.63;;;;;;;;;;5174987;27;20046;-73
2022/04/02 11:01:27;;;;;;;4.07;1.23;;;;;;;;;;5175618;27;20491;-73
2022/04/02 11:03:55;;;;;;;4.95;1.10;;;;;;;;;;5157005;27;20038;-74
2022/04/02 11:06:39;;;;;;;5.53;1.48;;;;;;;;;;5175945;27;20094;-79
2022/04/02 11:09:24;;;;;;;5.00;1.33;;;;;;;;;;5175830;27;20121;-74
2022/04/02 11:11:52;;;;;;;9.05;2.15;;;;;;;;;;5175440;27;20049;-75
2022/04/02 11:14:21;;;;;;;3.33;1.10;;;;;;;;;;5156876;27;20046;-74
2022/04/02 11:16:47;;;;;;;4.78;1.17;;;;;;;;;;5156305;27;20034;-74
2022/04/02 11:22:06;;;;;;;3.78;1.20;;;6.80;59.30;;;;;;5175072;27;20507;-77
2022/04/02 11:24:40;;;;;;;8.50;1.27;;;6.70;60.00;;;;;;5157454;27;20050;-77
2022/04/02 11:27:10;;;;;;;3.28;1.10;;;6.50;60.40;;;;;;5156972;27;20054;-73
2022/04/02 11:29:47;;;;;;;3.15;1.00;;;6.40;60.90;;;;;;5175663;27;20042;-78
2022/04/02 11:32:13;;;;;;;5.40;1.55;;;6.40;58.00;;;;;;5139968;27;20046;-83
2022/04/02 11:34:41;;;;;;;4.80;1.30;;;6.40;58.80;;;;;;5140102;27;20082;-84
2022/04/02 11:37:09;;;;;;;3.28;0.98;;;6.40;57.80;;;;;;5175749;27;20473;-79
2022/04/02 11:40:01;;;;;;;5.13;1.33;;;6.40;59.50;;;;;;5175305;27;20133;-77
2022/04/02 11:42:34;;;;;;;3.05;1.10;;;6.50;57.80;;;;;;5175627;27;20049;-76
2022/04/02 11:45:07;;;;;;;3.38;1.10;;;6.50;58.00;;;;;;5156747;27;20053;-83
2022/04/02 11:47:37;;;;;;;4.40;1.20;;;6.50;58.00;;;;;;5175496;27;20568;-74
2022/04/02 11:50:06;;;;;;;4.80;1.30;;;6.50;58.50;;;;;;5173064;27;20042;-82
2022/04/02 11:52:54;;;;;;;4.45;1.48;;;6.60;58.60;;;;;;5161765;27;20129;-78
2022/04/02 11:55:20;;;;;;;5.68;1.40;;;6.70;57.90;;;;;;5159683;27;20056;-82
2022/04/02 11:57:57;;;;;;;4.57;1.60;;;6.70;57.50;;;;;;5143254;27;20046;-78
2022/04/02 12:00:38;;;;;;;10.35;4.43;;;6.60;58.70;;;;;;5141303;27;20038;-80
2022/04/02 12:03:19;;;;;;;8.07;2.38;;;6.50;58.90;;;;;;5164483;27;20161;-79
2022/04/02 12:05:47;;;;;;;3.85;1.23;;;6.40;60.40;;;;;;5143430;27;20095;-75
2022/04/02 12:08:30;;;;;;;4.43;1.30;;;6.60;60.50;;;;;;5144276;27;20065;-77
2022/04/02 12:10:57;;;;;;;4.00;1.15;;;6.70;59.60;;;;;;5128325;27;20054;-74
2022/04/02 12:13:23;;;;;;;4.78;1.60;;;6.60;59.30;;;;;;5155902;27;20066;-74
2022/04/02 12:16:13;;;;;;;4.47;1.50;;;;;;;;;;5131518;27;20074;-76
2022/04/02 12:18:57;;;;;;;5.13;1.42;;;;;;;;;;5160605;27;20311;-75
2022/04/02 12:21:34;;;;;;;4.20;1.17;;;;;;;;;;5162425;27;20034;-80
2022/04/02 12:24:04;;;;;;;4.75;1.30;;;;;;;;;;5136890;27;20050;-74
2022/04/02 12:26:30;;;;;;;3.50;1.15;;;;;;;;;;5164957;27;20076;-77
2022/04/02 12:28:58;;;;;;;5.20;1.15;;;;;;;;;;5156983;27;20045;-79
2022/04/02 12:31:27;;;;;;;6.35;1.65;;;;;;;;;;5167870;27;20091;-82
2022/04/02 12:33:53;;;;;;;3.50;1.17;;;;;;;;;;5149221;27;20075;-75
2022/04/02 12:36:28;;;;;;;4.85;1.30;;;;;;;;;;5144427;27;20038;-77
2022/04/02 12:38:59;;;;;;;3.40;1.05;;;;;;;;;;5148984;27;20050;-79
2022/04/02 12:41:28;;;;;;;5.90;1.52;;;;;;;;;;5167875;27;20093;-81
2022/04/02 12:43:59;;;;;;;4.07;1.00;;;;;;;;;;5167805;27;20050;-76
2022/04/02 12:46:25;;;;;;;4.93;1.15;;;;;;;;;;5134980;27;20052;-75
2022/04/02 12:48:52;;;;;;;4.43;1.00;;;;;;;;;;5158239;27;20109;-75
2022/04/02 12:51:19;;;;;;;5.32;1.30;;;;;;;;;;5158654;27;20043;-75
2022/04/02 12:53:46;;;;;;;6.75;1.20;;;;;;;;;;5163745;27;20070;-75
2022/04/02 12:56:45;;;;;;;3.60;1.20;;;;;;;;;;5164475;27;20039;-75
2022/04/02 12:59:18;;;;;;;6.60;1.42;;;;;;;;;;5086657;27;20050;-75
2022/04/02 13:01:46;;;;;;;4.22;1.20;;;6.80;51.90;;;;;;5163659;27;20506;-83
2022/04/02 13:04:12;;;;;;;4.30;1.25;;;6.70;53.50;;;;;;5164254;27;20073;-75
2022/04/02 13:06:48;;;;;;;5.85;1.10;;;6.70;53.90;;;;;;5161886;27;20039;-74
2022/04/02 13:09:38;;;;;;;4.53;1.00;;;6.80;54.80;;;;;;5161129;27;20030;-75
2022/04/02 13:12:07;;;;;;;5.00;1.20;;;6.90;53.80;;;;;;5136321;27;20049;-77
2022/04/02 13:14:33;;;;;;;3.30;1.10;;;7.10;54.80;;;;;;5145863;27;20042;-77
2022/04/02 13:17:06;;;;;;;3.37;1.17;;;7.00;53.10;;;;;;5162835;27;20090;-76
2022/04/02 13:22:57;;;;;;;2.47;1.00;;;7.10;52.00;;;;;;5161506;27;20133;-82
2022/04/02 13:25:29;;;;;;;6.10;1.27;;;7.20;74.50;;;;;;5142664;27;20134;-74
2022/04/02 13:28:32;;;;;;;4.25;1.30;;;7.00;54.00;;;;;;5162632;27;20394;-81
2022/04/02 13:30:59;;;;;;;3.80;1.23;;;7.00;52.00;;;;;;5144831;27;20125;-74
2022/04/02 13:33:31;;;;;;;4.50;1.10;;;7.10;53.50;;;;;;5163405;27;20102;-73
2022/04/02 13:36:15;;;;;;;4.70;1.40;;;7.10;54.40;;;;;;5162938;27;20046;-77
2022/04/02 13:39:05;;;;;;;4.03;0.98;;;7.00;53.60;;;;;;5162290;27;20046;-75
2022/04/02 13:41:39;;;;;;;5.82;1.23;;;6.90;52.80;;;;;;5167408;27;20041;-73
2022/04/02 13:44:25;;;;;;;4.05;1.30;;;7.00;51.00;;;;;;5162236;27;20035;-74
2022/04/02 13:46:53;;;;;;;2.75;1.00;;;6.90;49.40;;;;;;5159831;27;20102;-74